Terminal Aerodrome Forecast
Issued by NWS Upton, NY

Home | Current Version | Previous Version | Text Only | Print | Product List | Glossary On
Versions: 1 2 3 4 5 6 7 8 9 10 11 12 13 14 15 16 17 18 19 20 21 22 23 24 25 26 27 28 29 30 31 32 33 34 35
000
FTUS41 KOKX 262339
TAFBDR
TAF
KBDR 262339Z 2700/2724 29008KT P6SM SCT250
     FM270200 VRB04KT P6SM BKN200
     FM271300 10006KT P6SM SCT035 SCT080 BKN120
     FM271500 09006KT 3SM SHRA BR FEW010 BKN025 OVC040
     FM271800 11010KT 3SM SHRA BR BKN009
     FM272100 10008KT 2SM -DZ BR BKN006=

USA.gov is the U.S. government's official web portal to all federal, state and local government web resources and services.